Terminal Aerodrome Forecast
Issued by NWS Memphis, TN

Home | Current Version | Previous Version | Text Only | Print | Product List | Glossary On
Versions: 1 2 3 4 5 6 7 8 9 10 11 12 13 14 15 16 17
000
FTUS44 KMEG 180900 AAA
TAFMKL
TAF AMD
KMKL 180905Z 1809/1906 00000KT P6SM VCTS SCT025 OVC035CB
      TEMPO 1809/1813 5SM BR BKN025
     FM181300 VRB03KT P6SM BKN040 OVC150
     FM181800 08004KT P6SM SCT040 OVC150
     FM190400 00000KT P6SM SKC=

USA.gov is the U.S. government's official web portal to all federal, state and local government web resources and services.